07:05
Airports
History
Links
Donate
Help keep this website running!
PayPal
Bitcoin
This page is community maintained. The information is intended for PC simulator navigation or reference.
Always use approved charts for navigation.
RKJK
KUNSAN AB
KUNSAN AB (RKJK)
Gunsan-si, Jeollabuk-do, Korea, Republic of (573)
(C)
Lat/Lng:35° 54' 13.52" N / 126° 36' 57.22" E
35.903756 / 126.615894
Elevation:29'ft / 9mMSL
ID / ICAO:RKJK
Runways:1
Longest:18-36
Concrete 2,752m / 9,029ft
Controlled:Yes
METAR06:56 GMT 2018-01-19
Altimeter: 30.20
Visibility: 10.0 statute miles
Wind: 7 knots (from 300°)
Temp: 4°c / 39°f
Humidity: 48.0%

METAR: RKJK 190656Z AUTO 30007KT 10SM CLR 04/M06 A3020 RMK AO2 SLP232 T00421064

(Powered by phpweather)
Airport Radio Frequencies
ATIS: 120.22
Clearance Delivery: 133.75
Ground: 123.5
Tower: 126.5
Approach: 124.1
Departure: 124.1
Nearby VORs <50NM
Nearby NDBs
Runway 18 / 36
Dimensions:2752 x 45.7m 9029' x 150'ft
Surface:Concrete
Edge Lights:High intensity
Runway 18 [A]Runway 36 [B]
Heading:169°TH 349°TH
Lat:
Lng:
35° 54' 57.21"N
126° 36' 46.82"E
35° 53' 29.83"N
126° 37' 7.61"E
ALS:ALSF-IALSF-I
TDZ:Yes, lighted
User Notes and Comments
35° 54' 13.52" N / 126° 36' 57.22" E
Distance To
Airport ID:
Nearby Airports
(U) JEON JU 28.2 NM
RKJU E 93°
(U) G 500 30.8 NM
RK20 ENE 62°
(C) G 536 37.6 NM
RKUL NE 47°
4 G 712 41.8 NM
RK60 S 189°
4 G 710 44.7 NM
RK6D SSE 149°
4 G 526 47.0 NM
RK50 N
(C) GWANGJU 54.8 NM
RKJJ ( WX ) SSE 168°
VFR Chart
Flight Planning at SkyVector.com